sensor_id;sensor_type;location;lat;lon;timestamp;P1;durP1;ratioP1;P2;durP2;ratioP2
21731;SDS011;11028;51.156;17.130;2023-03-23T00:04:59;41.15;;;23.90;;
21731;SDS011;11028;51.156;17.130;2023-03-23T00:12:16;37.05;;;21.55;;
21731;SDS011;11028;51.156;17.130;2023-03-23T00:19:32;38.85;;;20.52;;
21731;SDS011;11028;51.156;17.130;2023-03-23T00:27:01;45.58;;;20.90;;
21731;SDS011;11028;51.156;17.130;2023-03-23T00:34:20;40.60;;;22.88;;
21731;SDS011;11028;51.156;17.130;2023-03-23T00:41:40;43.60;;;23.30;;
21731;SDS011;11028;51.156;17.130;2023-03-23T00:48:58;46.15;;;23.63;;
21731;SDS011;11028;51.156;17.130;2023-03-23T00:56:15;39.40;;;20.88;;
21731;SDS011;11028;51.156;17.130;2023-03-23T01:03:32;39.15;;;21.13;;
21731;SDS011;11028;51.156;17.130;2023-03-23T01:10:51;37.97;;;19.92;;
21731;SDS011;11028;51.156;17.130;2023-03-23T01:18:17;34.50;;;19.63;;
21731;SDS011;11028;51.156;17.130;2023-03-23T01:25:35;34.15;;;18.38;;
21731;SDS011;11028;51.156;17.130;2023-03-23T01:32:54;30.42;;;16.73;;
21731;SDS011;11028;51.156;17.130;2023-03-23T01:40:12;27.42;;;17.23;;
21731;SDS011;11028;51.156;17.130;2023-03-23T01:47:29;30.15;;;16.33;;
21731;SDS011;11028;51.156;17.130;2023-03-23T01:54:48;25.48;;;14.20;;
21731;SDS011;11028;51.156;17.130;2023-03-23T02:02:06;25.75;;;14.10;;
21731;SDS011;11028;51.156;17.130;2023-03-23T02:09:23;22.80;;;13.38;;
21731;SDS011;11028;51.156;17.130;2023-03-23T02:16:43;21.48;;;13.43;;
21731;SDS011;11028;51.156;17.130;2023-03-23T02:24:10;26.38;;;13.52;;
21731;SDS011;11028;51.156;17.130;2023-03-23T02:31:35;25.88;;;13.95;;
21731;SDS011;11028;51.156;17.130;2023-03-23T02:39:00;26.52;;;13.15;;
21731;SDS011;11028;51.156;17.130;2023-03-23T02:46:21;22.95;;;13.02;;
21731;SDS011;11028;51.156;17.130;2023-03-23T02:53:40;25.88;;;14.48;;
21731;SDS011;11028;51.156;17.130;2023-03-23T03:01:10;28.05;;;13.05;;
21731;SDS011;11028;51.156;17.130;2023-03-23T03:08:30;19.13;;;11.40;;
21731;SDS011;11028;51.156;17.130;2023-03-23T03:15:51;16.45;;;10.32;;
21731;SDS011;11028;51.156;17.130;2023-03-23T03:23:12;17.30;;;10.45;;
21731;SDS011;11028;51.156;17.130;2023-03-23T03:30:33;18.52;;;9.70;;
21731;SDS011;11028;51.156;17.130;2023-03-23T03:37:53;15.93;;;9.48;;
21731;SDS011;11028;51.156;17.130;2023-03-23T03:45:13;14.68;;;9.23;;
21731;SDS011;11028;51.156;17.130;2023-03-23T03:52:30;12.90;;;8.93;;
21731;SDS011;11028;51.156;17.130;2023-03-23T03:59:48;11.82;;;7.47;;
21731;SDS011;11028;51.156;17.130;2023-03-23T04:07:29;16.33;;;8.50;;
21731;SDS011;11028;51.156;17.130;2023-03-23T04:14:46;16.60;;;9.07;;
21731;SDS011;11028;51.156;17.130;2023-03-23T04:22:04;14.07;;;8.20;;
21731;SDS011;11028;51.156;17.130;2023-03-23T04:29:27;12.20;;;8.25;;
21731;SDS011;11028;51.156;17.130;2023-03-23T04:36:53;14.75;;;8.27;;
21731;SDS011;11028;51.156;17.130;2023-03-23T04:52:01;14.23;;;7.40;;
21731;SDS011;11028;51.156;17.130;2023-03-23T04:59:39;13.35;;;7.50;;
21731;SDS011;11028;51.156;17.130;2023-03-23T05:07:03;10.95;;;7.00;;
21731;SDS011;11028;51.156;17.130;2023-03-23T05:14:26;11.93;;;6.55;;
21731;SDS011;11028;51.156;17.130;2023-03-23T05:21:56;10.60;;;6.82;;
21731;SDS011;11028;51.156;17.130;2023-03-23T05:29:22;9.75;;;6.25;;
21731;SDS011;11028;51.156;17.130;2023-03-23T05:36:47;11.57;;;7.15;;
21731;SDS011;11028;51.156;17.130;2023-03-23T05:44:30;17.83;;;8.55;;
21731;SDS011;11028;51.156;17.130;2023-03-23T05:51:49;10.07;;;6.75;;
21731;SDS011;11028;51.156;17.130;2023-03-23T05:59:08;8.43;;;6.18;;
21731;SDS011;11028;51.156;17.130;2023-03-23T06:06:28;14.73;;;4.93;;
21731;SDS011;11028;51.156;17.130;2023-03-23T06:13:54;9.95;;;5.38;;
21731;SDS011;11028;51.156;17.130;2023-03-23T06:21:12;11.10;;;5.10;;
21731;SDS011;11028;51.156;17.130;2023-03-23T06:28:44;14.95;;;5.93;;
21731;SDS011;11028;51.156;17.130;2023-03-23T06:36:01;6.68;;;4.45;;
21731;SDS011;11028;51.156;17.130;2023-03-23T06:43:31;5.90;;;4.32;;
21731;SDS011;11028;51.156;17.130;2023-03-23T06:51:10;8.48;;;4.90;;
21731;SDS011;11028;51.156;17.130;2023-03-23T06:58:30;8.05;;;4.90;;
21731;SDS011;11028;51.156;17.130;2023-03-23T07:05:49;7.90;;;4.72;;
21731;SDS011;11028;51.156;17.130;2023-03-23T07:13:11;9.25;;;4.28;;
21731;SDS011;11028;51.156;17.130;2023-03-23T07:20:36;7.85;;;4.38;;
21731;SDS011;11028;51.156;17.130;2023-03-23T07:27:54;5.78;;;3.55;;
21731;SDS011;11028;51.156;17.130;2023-03-23T07:35:13;8.60;;;3.90;;
21731;SDS011;11028;51.156;17.130;2023-03-23T07:42:42;8.15;;;4.00;;
21731;SDS011;11028;51.156;17.130;2023-03-23T07:49:59;7.32;;;4.35;;
21731;SDS011;11028;51.156;17.130;2023-03-23T07:57:26;6.25;;;3.90;;
21731;SDS011;11028;51.156;17.130;2023-03-23T08:04:44;7.55;;;4.80;;
21731;SDS011;11028;51.156;17.130;2023-03-23T08:12:21;8.63;;;5.03;;
21731;SDS011;11028;51.156;17.130;2023-03-23T08:19:58;9.07;;;5.00;;
21731;SDS011;11028;51.156;17.130;2023-03-23T08:27:29;7.75;;;4.43;;
21731;SDS011;11028;51.156;17.130;2023-03-23T08:35:05;10.68;;;4.65;;
21731;SDS011;11028;51.156;17.130;2023-03-23T08:43:00;8.05;;;4.07;;
21731;SDS011;11028;51.156;17.130;2023-03-23T08:50:37;11.38;;;3.97;;
21731;SDS011;11028;51.156;17.130;2023-03-23T08:58:13;7.25;;;3.38;;
21731;SDS011;11028;51.156;17.130;2023-03-23T09:05:57;8.90;;;3.17;;
21731;SDS011;11028;51.156;17.130;2023-03-23T09:13:26;4.05;;;2.60;;
21731;SDS011;11028;51.156;17.130;2023-03-23T09:20:42;5.18;;;2.60;;
21731;SDS011;11028;51.156;17.130;2023-03-23T09:28:02;8.73;;;3.38;;
21731;SDS011;11028;51.156;17.130;2023-03-23T09:35:19;6.00;;;2.92;;
21731;SDS011;11028;51.156;17.130;2023-03-23T09:42:41;9.82;;;3.35;;
21731;SDS011;11028;51.156;17.130;2023-03-23T09:50:06;6.57;;;3.00;;
21731;SDS011;11028;51.156;17.130;2023-03-23T09:57:26;9.82;;;3.35;;
21731;SDS011;11028;51.156;17.130;2023-03-23T10:04:46;10.27;;;3.15;;
21731;SDS011;11028;51.156;17.130;2023-03-23T10:12:07;4.32;;;1.80;;
21731;SDS011;11028;51.156;17.130;2023-03-23T10:19:27;7.67;;;2.27;;
21731;SDS011;11028;51.156;17.130;2023-03-23T10:26:48;3.47;;;2.10;;
21731;SDS011;11028;51.156;17.130;2023-03-23T10:34:10;5.75;;;1.90;;
21731;SDS011;11028;51.156;17.130;2023-03-23T10:41:27;2.42;;;1.60;;
21731;SDS011;11028;51.156;17.130;2023-03-23T10:48:44;6.38;;;2.00;;
21731;SDS011;11028;51.156;17.130;2023-03-23T10:56:16;4.38;;;1.55;;
21731;SDS011;11028;51.156;17.130;2023-03-23T11:03:39;1.80;;;1.30;;
21731;SDS011;11028;51.156;17.130;2023-03-23T11:10:57;6.18;;;1.67;;
21731;SDS011;11028;51.156;17.130;2023-03-23T11:18:19;2.78;;;1.20;;
21731;SDS011;11028;51.156;17.130;2023-03-23T11:25:50;3.75;;;1.55;;
21731;SDS011;11028;51.156;17.130;2023-03-23T11:33:07;4.97;;;1.42;;
21731;SDS011;11028;51.156;17.130;2023-03-23T11:40:26;3.38;;;1.10;;
21731;SDS011;11028;51.156;17.130;2023-03-23T11:47:45;4.28;;;1.73;;
21731;SDS011;11028;51.156;17.130;2023-03-23T11:55:12;3.88;;;1.70;;
21731;SDS011;11028;51.156;17.130;2023-03-23T12:02:35;7.03;;;1.80;;
21731;SDS011;11028;51.156;17.130;2023-03-23T12:09:57;4.72;;;2.20;;
21731;SDS011;11028;51.156;17.130;2023-03-23T12:17:19;3.58;;;1.30;;
21731;SDS011;11028;51.156;17.130;2023-03-23T12:24:43;2.95;;;1.63;;
21731;SDS011;11028;51.156;17.130;2023-03-23T12:32:08;2.08;;;1.45;;
21731;SDS011;11028;51.156;17.130;2023-03-23T12:39:40;3.00;;;2.17;;
21731;SDS011;11028;51.156;17.130;2023-03-23T12:54:40;2.58;;;1.63;;
21731;SDS011;11028;51.156;17.130;2023-03-23T13:02:12;3.22;;;1.75;;
21731;SDS011;11028;51.156;17.130;2023-03-23T13:09:31;2.53;;;1.75;;
21731;SDS011;11028;51.156;17.130;2023-03-23T13:16:52;3.20;;;2.03;;
21731;SDS011;11028;51.156;17.130;2023-03-23T13:24:12;3.87;;;2.93;;
21731;SDS011;11028;51.156;17.130;2023-03-23T13:31:30;6.15;;;2.10;;
21731;SDS011;11028;51.156;17.130;2023-03-23T13:38:50;3.92;;;1.88;;
21731;SDS011;11028;51.156;17.130;2023-03-23T13:46:09;2.58;;;2.00;;
21731;SDS011;11028;51.156;17.130;2023-03-23T13:53:27;2.85;;;1.88;;
21731;SDS011;11028;51.156;17.130;2023-03-23T14:01:00;4.60;;;2.40;;
21731;SDS011;11028;51.156;17.130;2023-03-23T14:08:21;2.63;;;2.20;;
21731;SDS011;11028;51.156;17.130;2023-03-23T14:15:41;8.75;;;2.53;;
21731;SDS011;11028;51.156;17.130;2023-03-23T14:23:00;4.35;;;2.00;;
21731;SDS011;11028;51.156;17.130;2023-03-23T14:30:18;4.60;;;2.30;;
21731;SDS011;11028;51.156;17.130;2023-03-23T14:37:35;3.22;;;2.20;;
21731;SDS011;11028;51.156;17.130;2023-03-23T14:44:54;3.25;;;2.45;;
21731;SDS011;11028;51.156;17.130;2023-03-23T14:52:11;3.70;;;2.60;;
21731;SDS011;11028;51.156;17.130;2023-03-23T14:59:30;4.93;;;2.75;;
21731;SDS011;11028;51.156;17.130;2023-03-23T15:06:49;7.95;;;3.20;;
21731;SDS011;11028;51.156;17.130;2023-03-23T15:14:08;5.85;;;2.63;;
21731;SDS011;11028;51.156;17.130;2023-03-23T15:21:27;25.80;;;13.18;;
21731;SDS011;11028;51.156;17.130;2023-03-23T15:28:46;7.43;;;3.45;;
21731;SDS011;11028;51.156;17.130;2023-03-23T15:36:06;7.32;;;4.05;;
21731;SDS011;11028;51.156;17.130;2023-03-23T15:43:24;7.22;;;2.63;;
21731;SDS011;11028;51.156;17.130;2023-03-23T15:50:43;4.28;;;2.47;;
21731;SDS011;11028;51.156;17.130;2023-03-23T15:58:07;2.97;;;2.38;;
21731;SDS011;11028;51.156;17.130;2023-03-23T16:05:26;5.30;;;2.30;;
21731;SDS011;11028;51.156;17.130;2023-03-23T16:12:46;6.00;;;3.10;;
21731;SDS011;11028;51.156;17.130;2023-03-23T16:20:11;6.82;;;2.80;;
21731;SDS011;11028;51.156;17.130;2023-03-23T16:27:30;6.50;;;2.60;;
21731;SDS011;11028;51.156;17.130;2023-03-23T16:34:49;5.53;;;2.78;;
21731;SDS011;11028;51.156;17.130;2023-03-23T16:42:07;4.95;;;2.45;;
21731;SDS011;11028;51.156;17.130;2023-03-23T16:49:25;4.75;;;2.47;;
21731;SDS011;11028;51.156;17.130;2023-03-23T16:56:47;4.90;;;2.88;;
21731;SDS011;11028;51.156;17.130;2023-03-23T17:04:05;5.30;;;3.08;;
21731;SDS011;11028;51.156;17.130;2023-03-23T17:11:23;7.88;;;3.58;;
21731;SDS011;11028;51.156;17.130;2023-03-23T17:18:43;7.72;;;4.43;;
21731;SDS011;11028;51.156;17.130;2023-03-23T17:26:01;7.40;;;4.22;;
21731;SDS011;11028;51.156;17.130;2023-03-23T17:33:20;6.82;;;3.97;;
21731;SDS011;11028;51.156;17.130;2023-03-23T17:40:39;7.75;;;3.88;;
21731;SDS011;11028;51.156;17.130;2023-03-23T17:47:58;10.48;;;4.38;;
21731;SDS011;11028;51.156;17.130;2023-03-23T17:55:17;10.32;;;4.38;;
21731;SDS011;11028;51.156;17.130;2023-03-23T18:02:36;11.02;;;3.35;;
21731;SDS011;11028;51.156;17.130;2023-03-23T18:09:56;8.05;;;4.10;;
21731;SDS011;11028;51.156;17.130;2023-03-23T18:17:14;9.60;;;3.88;;
21731;SDS011;11028;51.156;17.130;2023-03-23T18:24:34;11.55;;;3.47;;
21731;SDS011;11028;51.156;17.130;2023-03-23T18:31:52;4.80;;;3.53;;
21731;SDS011;11028;51.156;17.130;2023-03-23T18:39:11;8.85;;;4.00;;
21731;SDS011;11028;51.156;17.130;2023-03-23T18:46:30;13.00;;;7.30;;
21731;SDS011;11028;51.156;17.130;2023-03-23T18:53:48;8.27;;;4.30;;
21731;SDS011;11028;51.156;17.130;2023-03-23T19:01:07;8.50;;;4.72;;
21731;SDS011;11028;51.156;17.130;2023-03-23T19:08:28;7.63;;;4.88;;
21731;SDS011;11028;51.156;17.130;2023-03-23T19:15:46;8.48;;;4.88;;
21731;SDS011;11028;51.156;17.130;2023-03-23T19:23:04;9.10;;;4.53;;
21731;SDS011;11028;51.156;17.130;2023-03-23T19:30:24;8.88;;;4.90;;
21731;SDS011;11028;51.156;17.130;2023-03-23T19:37:42;8.50;;;4.80;;
21731;SDS011;11028;51.156;17.130;2023-03-23T19:45:01;7.53;;;4.80;;
21731;SDS011;11028;51.156;17.130;2023-03-23T19:52:21;8.52;;;4.55;;
21731;SDS011;11028;51.156;17.130;2023-03-23T19:59:39;7.82;;;5.05;;
21731;SDS011;11028;51.156;17.130;2023-03-23T20:06:58;12.45;;;5.05;;
21731;SDS011;11028;51.156;17.130;2023-03-23T20:14:17;9.90;;;5.35;;
21731;SDS011;11028;51.156;17.130;2023-03-23T20:21:36;10.98;;;5.53;;
21731;SDS011;11028;51.156;17.130;2023-03-23T20:28:55;9.55;;;5.53;;
21731;SDS011;11028;51.156;17.130;2023-03-23T20:36:15;8.73;;;5.60;;
21731;SDS011;11028;51.156;17.130;2023-03-23T20:43:36;7.87;;;4.70;;
21731;SDS011;11028;51.156;17.130;2023-03-23T20:50:54;13.43;;;5.63;;
21731;SDS011;11028;51.156;17.130;2023-03-23T20:58:14;11.60;;;5.90;;
21731;SDS011;11028;51.156;17.130;2023-03-23T21:05:32;17.55;;;7.90;;
21731;SDS011;11028;51.156;17.130;2023-03-23T21:12:51;13.48;;;6.88;;
21731;SDS011;11028;51.156;17.130;2023-03-23T21:20:10;12.88;;;6.40;;
21731;SDS011;11028;51.156;17.130;2023-03-23T21:27:29;10.13;;;5.88;;
21731;SDS011;11028;51.156;17.130;2023-03-23T21:34:47;8.82;;;4.97;;
21731;SDS011;11028;51.156;17.130;2023-03-23T21:42:06;7.53;;;5.10;;
21731;SDS011;11028;51.156;17.130;2023-03-23T21:49:25;10.18;;;5.30;;
21731;SDS011;11028;51.156;17.130;2023-03-23T21:56:44;8.88;;;5.35;;
21731;SDS011;11028;51.156;17.130;2023-03-23T22:04:04;8.55;;;5.28;;
21731;SDS011;11028;51.156;17.130;2023-03-23T22:11:24;10.15;;;5.95;;
21731;SDS011;11028;51.156;17.130;2023-03-23T22:18:42;10.90;;;5.53;;
21731;SDS011;11028;51.156;17.130;2023-03-23T22:26:03;12.25;;;6.10;;
21731;SDS011;11028;51.156;17.130;2023-03-23T22:33:21;11.82;;;6.50;;
21731;SDS011;11028;51.156;17.130;2023-03-23T22:40:40;14.27;;;6.93;;
21731;SDS011;11028;51.156;17.130;2023-03-23T22:48:00;10.93;;;7.47;;
21731;SDS011;11028;51.156;17.130;2023-03-23T22:55:21;15.63;;;7.88;;
21731;SDS011;11028;51.156;17.130;2023-03-23T23:02:39;14.75;;;8.07;;
21731;SDS011;11028;51.156;17.130;2023-03-23T23:10:01;12.48;;;7.50;;
21731;SDS011;11028;51.156;17.130;2023-03-23T23:17:20;11.90;;;7.10;;
21731;SDS011;11028;51.156;17.130;2023-03-23T23:24:38;12.23;;;7.10;;
21731;SDS011;11028;51.156;17.130;2023-03-23T23:31:59;18.20;;;7.38;;
21731;SDS011;11028;51.156;17.130;2023-03-23T23:39:19;11.60;;;6.05;;
21731;SDS011;11028;51.156;17.130;2023-03-23T23:46:37;10.77;;;6.32;;
21731;SDS011;11028;51.156;17.130;2023-03-23T23:53:57;10.02;;;6.20;;
